Time;durP1;ratioP1;P1;durP2;ratioP2;P2;SDS_P1;SDS_P2;PMS_P1;PMS_P2;Temp;Humidity;BMP_temperature;BMP_pressure;BME280_temperature;BME280_humidity;BME280_pressure;Samples;Min_cycle;Max_cycle;Signal;HPM_P1;HPM_P2
2022/12/10 00:00:45;;;;;;;2.97;2.77;;;3.70;99.90;;;;;;4930586;28;20232;-64
2022/12/10 00:03:13;;;;;;;2.90;2.70;;;3.70;99.90;;;;;;4930081;28;20205;-66
2022/12/10 00:05:40;;;;;;;2.78;2.58;;;3.70;99.90;;;;;;4930926;29;20204;-65
2022/12/10 00:08:07;;;;;;;2.90;2.70;;;3.70;99.90;;;;;;4931056;29;20224;-65
2022/12/10 00:10:35;;;;;;;3.00;2.80;;;3.80;99.90;;;;;;4930170;29;20200;-62
2022/12/10 00:13:02;;;;;;;2.70;2.60;;;3.80;99.90;;;;;;4931416;29;20200;-64
2022/12/10 00:15:29;;;;;;;2.60;2.50;;;3.80;99.90;;;;;;4929063;29;20669;-65
2022/12/10 00:17:55;;;;;;;2.97;2.77;;;3.80;99.90;;;;;;4931833;28;20223;-64
2022/12/10 00:20:24;;;;;;;2.63;2.53;;;3.80;99.90;;;;;;4931073;29;20232;-63
2022/12/10 00:22:51;;;;;;;2.90;2.70;;;3.80;99.90;;;;;;4928325;28;20224;-63
2022/12/10 00:25:18;;;;;;;2.60;2.50;;;3.80;99.90;;;;;;4927566;28;20208;-63
2022/12/10 00:27:45;;;;;;;2.83;2.63;;;3.70;99.90;;;;;;4928212;29;20231;-63
2022/12/10 00:30:13;;;;;;;2.60;2.50;;;3.70;99.90;;;;;;4928141;28;20773;-63
2022/12/10 00:32:40;;;;;;;2.50;2.40;;;3.70;99.90;;;;;;4927031;28;20212;-64
2022/12/10 00:35:07;;;;;;;2.70;2.60;;;3.70;99.90;;;;;;4929597;28;20617;-64
2022/12/10 00:37:35;;;;;;;2.60;2.50;;;3.70;99.90;;;;;;4924249;29;20231;-64
2022/12/10 00:40:03;;;;;;;3.10;2.90;;;3.70;99.90;;;;;;4927414;28;20601;-62
2022/12/10 00:42:30;;;;;;;2.80;2.70;;;3.70;99.90;;;;;;4926229;29;20287;-64
2022/12/10 00:44:56;;;;;;;2.83;2.63;;;3.70;99.90;;;;;;4928465;28;20204;-63
2022/12/10 00:47:23;;;;;;;3.03;2.83;;;3.70;99.90;;;;;;4928997;28;20232;-63
2022/12/10 00:49:52;;;;;;;2.83;2.63;;;3.70;99.90;;;;;;4925743;28;20291;-64
2022/12/10 00:52:19;;;;;;;3.10;2.90;;;3.70;99.90;;;;;;4929668;29;20240;-63
2022/12/10 00:54:47;;;;;;;2.50;2.40;;;3.80;99.90;;;;;;4930698;29;20212;-64
2022/12/10 00:57:14;;;;;;;2.70;2.60;;;3.80;99.90;;;;;;4927254;29;20258;-63
2022/12/10 00:59:41;;;;;;;2.72;2.53;;;3.90;99.90;;;;;;4929549;29;20212;-63
2022/12/10 01:02:08;;;;;;;2.58;2.47;;;3.90;99.90;;;;;;4925845;28;20231;-63
2022/12/10 01:04:34;;;;;;;3.00;2.80;;;3.90;99.90;;;;;;4928805;29;20222;-62
2022/12/10 01:07:01;;;;;;;2.50;2.40;;;3.90;99.90;;;;;;4931514;28;20244;-62
2022/12/10 01:09:30;;;;;;;2.47;2.37;;;3.90;99.90;;;;;;4929615;28;20204;-65
2022/12/10 01:12:06;;;;;;;2.60;2.50;;;4.00;99.90;;;;;;4930247;29;20870;-63
2022/12/10 01:14:34;;;;;;;2.73;2.63;;;4.00;99.90;;;;;;4945955;29;20267;-62
2022/12/10 01:17:03;;;;;;;3.10;2.90;;;3.90;99.90;;;;;;4936433;28;20231;-62
2022/12/10 01:19:30;;;;;;;2.63;2.43;;;3.90;99.90;;;;;;4930815;28;20250;-64
2022/12/10 01:21:57;;;;;;;3.30;2.73;;;4.10;99.90;;;;;;4933593;29;20224;-63
2022/12/10 01:24:27;;;;;;;2.47;2.37;;;4.00;99.90;;;;;;4931319;29;20204;-63
2022/12/10 01:26:54;;;;;;;2.60;2.50;;;3.90;99.90;;;;;;4924231;28;20224;-63
2022/12/10 01:29:23;;;;;;;2.77;2.67;;;3.90;99.90;;;;;;4926689;29;20219;-62
2022/12/10 01:31:53;;;;;;;3.03;2.77;;;3.90;99.90;;;;;;4928345;28;20905;-64
2022/12/10 01:34:20;;;;;;;2.70;2.60;;;3.80;99.90;;;;;;4930817;29;20289;-61
2022/12/10 01:36:51;;;;;;;2.70;2.60;;;3.80;99.90;;;;;;4928147;29;20707;-61
2022/12/10 01:39:19;;;;;;;2.50;2.40;;;3.70;99.90;;;;;;4935525;28;20299;-61
2022/12/10 01:41:48;;;;;;;2.37;2.27;;;3.70;99.90;;;;;;4935305;29;20319;-63
2022/12/10 01:44:52;;;;;;;2.50;2.40;;;3.70;99.90;;;;;;4927409;28;20669;-62
2022/12/10 01:47:21;;;;;;;2.30;2.20;;;3.70;99.90;;;;;;4923613;28;20277;-61
2022/12/10 01:49:48;;;;;;;2.33;2.23;;;3.70;99.90;;;;;;4924989;29;20699;-63
2022/12/10 01:52:15;;;;;;;2.40;2.30;;;3.70;99.90;;;;;;4925658;28;20204;-61
2022/12/10 01:54:44;;;;;;;2.80;2.70;;;3.60;99.90;;;;;;4925590;29;20207;-62
2022/12/10 01:57:14;;;;;;;2.90;2.70;;;3.50;99.90;;;;;;4929088;28;20242;-62
2022/12/10 01:59:42;;;;;;;2.80;2.60;;;3.50;99.90;;;;;;4923506;29;20208;-61
2022/12/10 02:02:15;;;;;;;2.60;2.50;;;3.50;99.90;;;;;;4923776;28;20224;-62
2022/12/10 02:04:51;;;;;;;2.43;2.33;;;3.40;99.90;;;;;;4927364;28;20218;-62
2022/12/10 02:07:23;;;;;;;2.90;2.70;;;3.40;99.90;;;;;;4926868;28;20230;-62
2022/12/10 02:09:57;;;;;;;2.50;2.40;;;3.40;99.90;;;;;;4930205;28;20320;-63
2022/12/10 02:12:30;;;;;;;2.97;2.80;;;3.50;99.90;;;;;;4926728;28;20560;-62
2022/12/10 02:15:03;;;;;;;2.97;2.78;;;3.40;99.90;;;;;;4929219;29;20204;-63
2022/12/10 02:17:35;;;;;;;2.67;2.50;;;3.50;99.90;;;;;;4924100;28;20232;-62
2022/12/10 02:20:08;;;;;;;2.87;2.77;;;3.50;99.90;;;;;;4927126;28;20226;-61
2022/12/10 02:22:39;;;;;;;2.47;2.37;;;3.60;99.90;;;;;;4925750;29;20209;-62
2022/12/10 02:25:09;;;;;;;2.97;2.77;;;3.60;99.90;;;;;;4931264;28;20747;-61
2022/12/10 02:27:43;;;;;;;2.90;2.70;;;3.60;99.90;;;;;;4926741;28;20230;-62
2022/12/10 02:30:12;;;;;;;2.60;2.50;;;3.70;99.90;;;;;;4927986;29;20226;-63
2022/12/10 02:32:43;;;;;;;2.43;2.33;;;3.60;99.90;;;;;;4928563;28;20211;-61
2022/12/10 02:35:13;;;;;;;2.80;2.60;;;3.60;99.90;;;;;;4930989;28;20211;-63
2022/12/10 02:37:46;;;;;;;2.67;2.57;;;3.70;99.90;;;;;;4932043;28;20223;-62
2022/12/10 02:40:19;;;;;;;2.33;2.23;;;3.70;99.90;;;;;;4931119;28;20212;-61
2022/12/10 02:42:50;;;;;;;2.57;2.47;;;3.70;99.90;;;;;;4929832;29;20207;-61
2022/12/10 02:45:19;;;;;;;2.37;2.27;;;3.70;99.90;;;;;;4932283;29;20673;-63
2022/12/10 02:47:46;;;;;;;2.60;2.40;;;3.70;99.90;;;;;;4932452;28;20232;-61
2022/12/10 02:50:15;;;;;;;2.40;2.30;;;3.70;99.90;;;;;;4932070;29;20626;-62
2022/12/10 02:52:42;;;;;;;2.63;2.50;;;3.70;99.90;;;;;;4932468;29;20669;-61
2022/12/10 02:55:12;;;;;;;2.43;2.33;;;3.70;99.90;;;;;;4932552;29;20208;-62
2022/12/10 02:57:46;;;;;;;2.47;2.37;;;3.70;99.90;;;;;;4932755;28;20231;-63
2022/12/10 03:00:18;;;;;;;2.70;2.60;;;3.70;99.90;;;;;;4932655;29;20208;-61
2022/12/10 03:03:11;;;;;;;2.53;2.43;;;3.70;99.90;;;;;;4933123;28;20270;-62
2022/12/10 03:05:46;;;;;;;2.83;2.73;;;3.70;99.90;;;;;;4928652;28;20288;-63
2022/12/10 03:08:18;;;;;;;2.77;2.57;;;3.70;99.90;;;;;;4933001;29;20645;-61
2022/12/10 03:10:53;;;;;;;2.40;2.30;;;3.70;99.90;;;;;;4928651;28;20207;-63
2022/12/10 03:13:28;;;;;;;2.63;2.53;;;3.70;99.90;;;;;;4929487;28;20214;-63
2022/12/10 03:15:56;;;;;;;2.53;2.43;;;3.70;99.90;;;;;;4931192;29;20221;-61
2022/12/10 03:18:27;;;;;;;2.70;2.60;;;3.70;99.90;;;;;;4935861;28;20303;-63
2022/12/10 03:20:59;;;;;;;2.50;2.40;;;3.70;99.90;;;;;;4939700;28;20375;-62
2022/12/10 03:23:27;;;;;;;2.87;2.77;;;3.70;99.90;;;;;;4927820;28;20209;-62
2022/12/10 03:25:54;;;;;;;2.67;2.57;;;3.70;99.90;;;;;;4928408;29;20219;-61
2022/12/10 03:28:23;;;;;;;2.87;2.73;;;3.80;99.90;;;;;;4927537;28;20213;-62
2022/12/10 03:30:54;;;;;;;2.97;2.77;;;3.80;99.90;;;;;;4925999;29;20665;-62
2022/12/10 03:33:21;;;;;;;2.37;2.27;;;3.90;99.90;;;;;;4928301;29;20282;-64
2022/12/10 03:35:50;;;;;;;2.80;2.60;;;3.90;99.90;;;;;;4928855;29;20205;-63
2022/12/10 03:38:17;;;;;;;2.50;2.40;;;3.90;99.90;;;;;;4927108;29;20212;-64
2022/12/10 03:40:44;;;;;;;3.10;2.90;;;3.90;99.90;;;;;;4930138;28;20216;-65
2022/12/10 03:43:13;;;;;;;2.67;2.47;;;3.90;99.90;;;;;;4928774;28;20220;-63
2022/12/10 03:45:40;;;;;;;2.83;2.73;;;3.90;99.90;;;;;;4928758;28;20211;-62
2022/12/10 03:48:07;;;;;;;2.37;2.27;;;3.90;99.90;;;;;;4929599;28;20235;-64
2022/12/10 03:50:37;;;;;;;2.70;2.50;;;3.90;99.90;;;;;;4935449;29;20552;-64
2022/12/10 03:53:05;;;;;;;2.97;2.77;;;3.90;99.90;;;;;;4934298;29;20214;-64
2022/12/10 03:55:32;;;;;;;3.10;2.87;;;3.90;99.90;;;;;;4935281;29;20208;-64
2022/12/10 03:57:59;;;;;;;2.55;2.35;;;3.80;99.90;;;;;;4934278;29;20244;-62
2022/12/10 04:00:26;;;;;;;2.40;2.30;;;3.90;99.90;;;;;;4933816;29;20307;-64
2022/12/10 04:02:53;;;;;;;2.60;2.50;;;3.80;99.90;;;;;;4931659;29;20231;-64
2022/12/10 04:05:20;;;;;;;2.70;2.60;;;3.80;99.90;;;;;;4932527;28;20315;-64
2022/12/10 04:07:46;;;;;;;2.60;2.50;;;3.90;99.90;;;;;;4932826;29;20234;-63
2022/12/10 04:10:15;;;;;;;2.83;2.63;;;3.90;99.90;;;;;;4932941;29;20216;-63
2022/12/10 04:12:42;;;;;;;2.70;2.60;;;3.80;99.90;;;;;;4931719;29;20219;-65
2022/12/10 04:17:55;;;;;;;2.77;2.67;;;3.80;99.90;;;;;;4931805;29;20234;-63
2022/12/10 04:28:35;;;;;;;3.27;3.07;;;3.90;99.90;;;;;;4927472;29;20273;-64
2022/12/10 04:31:02;;;;;;;3.30;3.10;;;3.90;99.90;;;;;;4931608;28;20677;-64
2022/12/10 04:33:29;;;;;;;4.30;3.70;;;3.80;99.90;;;;;;4926266;28;20590;-64
2022/12/10 04:35:56;;;;;;;3.70;3.50;;;3.70;99.90;;;;;;4931911;29;20204;-65
2022/12/10 04:38:22;;;;;;;3.60;3.40;;;3.70;99.90;;;;;;4932421;28;20212;-63
2022/12/10 04:40:51;;;;;;;3.60;3.40;;;3.60;99.90;;;;;;4931164;28;20274;-64
2022/12/10 04:43:18;;;;;;;3.37;3.17;;;3.60;99.90;;;;;;4932911;28;20212;-65
2022/12/10 04:45:44;;;;;;;3.30;3.10;;;3.60;99.90;;;;;;4933551;29;20222;-65
2022/12/10 04:48:11;;;;;;;3.40;3.20;;;3.60;99.90;;;;;;4933525;28;20222;-65
2022/12/10 04:50:38;;;;;;;3.70;3.50;;;3.80;99.90;;;;;;4931913;29;20204;-64
2022/12/10 04:53:05;;;;;;;3.25;3.08;;;3.80;99.90;;;;;;4932756;29;20275;-63
2022/12/10 04:55:31;;;;;;;3.47;3.27;;;3.80;99.90;;;;;;4931952;29;20878;-63
2022/12/10 04:58:00;;;;;;;3.57;3.37;;;3.80;99.90;;;;;;4932398;29;20251;-64
2022/12/10 05:00:26;;;;;;;3.30;3.10;;;3.90;99.90;;;;;;4931828;28;20206;-68
2022/12/10 05:02:53;;;;;;;2.90;2.67;;;3.80;99.90;;;;;;4931584;29;20700;-63
2022/12/10 05:05:20;;;;;;;2.83;2.70;;;3.80;99.90;;;;;;4932031;29;20204;-64
2022/12/10 05:07:47;;;;;;;2.60;2.47;;;3.80;99.90;;;;;;4932857;29;20228;-63
2022/12/10 05:10:14;;;;;;;2.33;2.23;;;3.80;99.90;;;;;;4932652;28;20208;-63
2022/12/10 05:12:40;;;;;;;2.70;2.60;;;3.80;99.90;;;;;;4930538;29;20682;-64
2022/12/10 05:15:10;;;;;;;2.80;2.70;;;3.80;99.90;;;;;;4931353;29;20200;-63
2022/12/10 05:17:37;;;;;;;2.50;2.40;;;3.90;99.90;;;;;;4931467;29;20228;-65
2022/12/10 05:20:04;;;;;;;3.10;2.90;;;3.90;99.90;;;;;;4931400;29;20208;-63
2022/12/10 05:25:15;;;;;;;3.27;3.07;;;3.80;99.90;;;;;;4940192;29;20234;-62
2022/12/10 05:27:42;;;;;;;3.07;2.87;;;3.90;99.90;;;;;;4940303;29;20342;-64
2022/12/10 05:30:11;;;;;;;3.17;2.97;;;3.80;99.90;;;;;;4931075;29;20223;-63
2022/12/10 05:32:38;;;;;;;3.47;3.27;;;3.90;99.90;;;;;;4930965;29;20208;-64
2022/12/10 05:35:06;;;;;;;3.30;3.10;;;3.80;99.90;;;;;;4930200;29;20204;-63
2022/12/10 05:37:33;;;;;;;4.00;3.73;;;3.80;99.90;;;;;;4931062;29;20224;-62
2022/12/10 05:40:00;;;;;;;3.60;3.40;;;3.70;99.90;;;;;;4932070;29;20224;-64
2022/12/10 05:42:27;;;;;;;4.13;3.70;;;3.70;99.90;;;;;;4932140;29;20598;-62
2022/12/10 05:44:53;;;;;;;3.93;3.73;;;3.60;99.90;;;;;;4932356;29;20209;-63
2022/12/10 05:47:22;;;;;;;4.07;3.80;;;3.50;99.90;;;;;;4931976;29;20228;-63
2022/12/10 05:49:48;;;;;;;3.83;3.63;;;3.40;99.90;;;;;;4931118;29;20211;-63
2022/12/10 05:52:15;;;;;;;3.80;3.50;;;3.50;99.90;;;;;;4933270;29;20210;-64
2022/12/10 05:54:42;;;;;;;3.60;3.27;;;3.50;99.90;;;;;;4934505;29;20212;-63
2022/12/10 05:57:09;;;;;;;3.67;3.47;;;3.50;99.90;;;;;;4934543;28;20220;-63
2022/12/10 05:59:36;;;;;;;3.20;3.00;;;3.50;99.90;;;;;;4934902;29;20295;-64
2022/12/10 06:02:02;;;;;;;3.50;3.30;;;3.50;99.90;;;;;;4934460;28;20252;-64
2022/12/10 06:04:31;;;;;;;3.23;3.03;;;3.40;99.90;;;;;;4931263;28;20204;-62
2022/12/10 06:06:57;;;;;;;3.90;3.70;;;3.40;99.90;;;;;;4936086;28;20242;-63
2022/12/10 06:09:24;;;;;;;3.67;3.47;;;3.30;99.90;;;;;;4933499;29;20208;-63
2022/12/10 06:11:51;;;;;;;4.03;3.83;;;3.40;99.90;;;;;;4934981;28;20319;-63
2022/12/10 06:14:18;;;;;;;3.40;3.20;;;3.50;99.90;;;;;;4933971;28;20212;-64
2022/12/10 06:16:44;;;;;;;3.40;3.20;;;3.50;99.90;;;;;;4937720;29;20234;-62
2022/12/10 06:19:11;;;;;;;3.73;3.53;;;3.50;99.90;;;;;;4936745;28;20210;-62
2022/12/10 06:21:40;;;;;;;3.77;3.57;;;3.40;99.90;;;;;;4934621;29;20238;-64
2022/12/10 06:24:07;;;;;;;3.77;3.57;;;3.50;99.90;;;;;;4934000;29;20649;-64
2022/12/10 06:26:34;;;;;;;3.90;3.70;;;3.40;99.90;;;;;;4933133;29;20238;-64
2022/12/10 06:29:01;;;;;;;4.10;3.90;;;3.40;99.90;;;;;;4932431;29;20215;-62
2022/12/10 06:31:28;;;;;;;3.87;3.67;;;3.30;99.90;;;;;;4927212;28;20236;-62
2022/12/10 06:34:01;;;;;;;3.70;3.50;;;3.30;99.90;;;;;;4932124;29;20283;-64
2022/12/10 06:36:29;;;;;;;3.63;3.43;;;3.30;99.90;;;;;;4927240;28;20230;-65
2022/12/10 06:38:57;;;;;;;4.40;4.10;;;3.30;99.90;;;;;;4933365;29;20691;-63
2022/12/10 06:41:24;;;;;;;3.80;3.60;;;3.30;99.90;;;;;;4933232;28;20204;-64
2022/12/10 06:43:51;;;;;;;3.97;3.77;;;3.20;99.90;;;;;;4932934;29;20291;-64
2022/12/10 06:46:20;;;;;;;4.10;3.90;;;3.30;99.90;;;;;;4924745;28;20242;-64
2022/12/10 06:48:47;;;;;;;4.70;4.30;;;3.30;99.90;;;;;;4934707;29;20204;-65
2022/12/10 06:51:14;;;;;;;4.53;4.23;;;3.40;99.90;;;;;;4935626;29;20360;-64
2022/12/10 06:53:42;;;;;;;4.88;4.57;;;3.40;99.90;;;;;;4939194;29;20848;-65
2022/12/10 06:56:19;;;;;;;5.20;4.80;;;3.50;99.90;;;;;;4946377;29;20228;-63
2022/12/10 06:58:48;;;;;;;5.77;5.37;;;3.50;99.90;;;;;;4947910;28;20287;-64
2022/12/10 07:01:17;;;;;;;6.07;5.67;;;3.40;99.90;;;;;;4947185;29;20204;-64
2022/12/10 07:03:44;;;;;;;5.77;5.47;;;3.40;99.90;;;;;;4943530;29;20232;-63
2022/12/10 07:06:12;;;;;;;4.97;4.67;;;3.30;99.90;;;;;;4946880;29;20806;-63
2022/12/10 07:08:39;;;;;;;5.20;4.80;;;3.30;99.90;;;;;;4944337;29;20238;-63
2022/12/10 07:11:07;;;;;;;5.87;5.47;;;3.40;99.90;;;;;;4941626;29;20214;-63
2022/12/10 07:13:36;;;;;;;4.87;4.57;;;3.40;99.90;;;;;;4934093;28;20306;-64
2022/12/10 07:16:04;;;;;;;4.90;4.60;;;3.40;99.90;;;;;;4931989;29;20247;-65
2022/12/10 07:18:31;;;;;;;4.90;4.60;;;3.40;99.90;;;;;;4935200;29;20204;-62
2022/12/10 07:20:58;;;;;;;5.43;5.07;;;3.40;99.90;;;;;;4934613;29;20204;-65
2022/12/10 07:23:24;;;;;;;5.20;4.90;;;3.40;99.90;;;;;;4934216;29;20216;-64
2022/12/10 07:25:51;;;;;;;5.23;4.93;;;3.30;99.90;;;;;;4936098;29;20230;-64
2022/12/10 07:28:18;;;;;;;5.30;5.00;;;3.30;99.90;;;;;;4933125;29;20218;-64
2022/12/10 07:30:46;;;;;;;4.30;3.93;;;3.30;99.90;;;;;;4934557;28;20204;-65
2022/12/10 07:33:13;;;;;;;4.90;4.60;;;3.30;99.90;;;;;;4944380;29;20230;-64
2022/12/10 07:35:40;;;;;;;4.75;4.45;;;3.30;99.90;;;;;;4937619;29;20223;-63
2022/12/10 07:38:07;;;;;;;4.60;4.30;;;3.30;99.90;;;;;;4933639;29;20232;-65
2022/12/10 07:40:34;;;;;;;4.93;4.63;;;3.30;99.90;;;;;;4932481;28;20657;-64
2022/12/10 07:43:00;;;;;;;5.00;4.70;;;3.30;99.90;;;;;;4932323;28;20254;-64
2022/12/10 07:45:27;;;;;;;4.50;4.30;;;3.30;99.90;;;;;;4932760;28;20298;-64
2022/12/10 07:47:56;;;;;;;5.20;4.90;;;3.30;99.90;;;;;;4931892;29;20242;-63
2022/12/10 07:50:23;;;;;;;5.10;4.80;;;3.30;99.90;;;;;;4931897;29;20212;-62
2022/12/10 07:52:50;;;;;;;5.80;5.50;;;3.10;99.90;;;;;;4932881;29;20508;-63
2022/12/10 07:55:17;;;;;;;6.00;5.60;;;3.00;99.90;;;;;;4932803;28;20291;-65
2022/12/10 07:57:43;;;;;;;5.73;5.37;;;2.90;99.90;;;;;;4933689;29;20604;-62
2022/12/10 08:00:12;;;;;;;6.13;5.73;;;2.90;99.90;;;;;;4931844;28;20304;-63
2022/12/10 08:02:38;;;;;;;5.43;5.13;;;2.90;99.90;;;;;;4931903;28;20307;-63
2022/12/10 08:05:07;;;;;;;5.60;5.30;;;2.90;99.90;;;;;;4932786;28;20204;-62
2022/12/10 08:07:34;;;;;;;6.40;6.00;;;2.90;99.90;;;;;;4933110;29;20230;-62
2022/12/10 08:10:01;;;;;;;5.93;5.53;;;2.90;99.90;;;;;;4934263;29;20231;-63
2022/12/10 08:12:28;;;;;;;6.00;5.60;;;2.90;99.90;;;;;;4932873;29;20195;-62
2022/12/10 08:14:55;;;;;;;6.17;5.77;;;2.80;99.90;;;;;;4933281;29;20215;-64
2022/12/10 08:17:22;;;;;;;5.97;5.57;;;2.70;99.90;;;;;;4932401;28;20247;-63
2022/12/10 08:19:49;;;;;;;5.80;5.50;;;2.70;99.90;;;;;;4931719;29;20211;-63
2022/12/10 08:22:17;;;;;;;6.25;5.85;;;2.80;99.90;;;;;;4931644;28;20234;-63
2022/12/10 08:24:44;;;;;;;6.30;5.90;;;2.90;99.90;;;;;;4933185;29;20232;-63
2022/12/10 08:27:11;;;;;;;6.15;5.75;;;2.80;99.90;;;;;;4932315;29;20232;-64
2022/12/10 08:29:38;;;;;;;5.72;5.43;;;2.80;99.90;;;;;;4927334;28;20204;-64
2022/12/10 08:32:06;;;;;;;6.15;5.75;;;2.90;99.90;;;;;;4930276;28;20570;-63
2022/12/10 08:34:33;;;;;;;5.73;5.43;;;3.00;99.90;;;;;;4924549;29;20208;-62
2022/12/10 08:36:59;;;;;;;6.13;5.73;;;3.10;99.90;;;;;;4929947;28;20228;-63
2022/12/10 08:39:28;;;;;;;6.20;5.80;;;3.00;99.90;;;;;;4929459;29;20301;-62
2022/12/10 08:41:55;;;;;;;6.22;5.82;;;3.00;99.90;;;;;;4929653;29;20571;-62
2022/12/10 08:44:21;;;;;;;6.30;5.90;;;3.00;99.90;;;;;;4926818;28;20582;-63
2022/12/10 08:46:48;;;;;;;5.93;5.53;;;3.00;99.90;;;;;;4928815;28;20230;-64
2022/12/10 08:49:15;;;;;;;6.10;5.70;;;3.00;99.90;;;;;;4926447;28;20208;-63
2022/12/10 08:51:42;;;;;;;5.83;5.53;;;3.10;99.90;;;;;;4929216;29;20831;-62
2022/12/10 08:54:08;;;;;;;6.50;6.10;;;3.20;99.90;;;;;;4929550;28;20200;-63
2022/12/10 08:56:39;;;;;;;5.80;5.50;;;3.20;99.90;;;;;;4929644;29;20224;-63
2022/12/10 08:59:05;;;;;;;6.20;5.80;;;3.20;99.90;;;;;;4936692;28;20232;-63
2022/12/10 09:01:32;;;;;;;6.00;5.60;;;3.20;99.90;;;;;;4936761;29;20431;-63
2022/12/10 09:04:00;;;;;;;5.93;5.63;;;3.20;99.90;;;;;;4929417;29;20226;-62
2022/12/10 09:06:27;;;;;;;6.50;6.10;;;3.20;99.90;;;;;;4929903;28;20224;-65
2022/12/10 09:08:54;;;;;;;6.33;5.93;;;3.10;99.90;;;;;;4930055;29;20208;-62
2022/12/10 09:11:23;;;;;;;6.53;6.13;;;3.10;99.90;;;;;;4929316;28;20707;-62
2022/12/10 09:13:52;;;;;;;5.40;5.10;;;3.10;99.90;;;;;;4927690;28;20216;-64
2022/12/10 09:16:19;;;;;;;6.53;6.13;;;3.10;99.90;;;;;;4926268;28;20234;-62
2022/12/10 09:18:46;;;;;;;6.47;6.07;;;3.10;99.90;;;;;;4930479;28;20210;-65
2022/12/10 09:21:15;;;;;;;7.10;6.70;;;3.10;99.90;;;;;;4930178;28;20226;-64
2022/12/10 09:23:42;;;;;;;5.77;5.47;;;2.80;99.90;;;;;;4923976;28;20232;-62
2022/12/10 09:26:11;;;;;;;6.43;6.03;;;2.80;99.90;;;;;;4925324;29;20251;-62
2022/12/10 09:28:38;;;;;;;6.55;6.15;;;2.90;99.90;;;;;;4935700;28;20215;-63
2022/12/10 09:31:08;;;;;;;6.90;6.50;;;2.90;99.90;;;;;;4949052;28;20621;-62
2022/12/10 09:33:35;;;;;;;6.67;6.27;;;3.00;99.90;;;;;;4932408;29;20204;-64
2022/12/10 09:36:03;;;;;;;6.27;5.87;;;3.10;99.90;;;;;;4935042;29;20582;-63
2022/12/10 09:38:30;;;;;;;6.70;6.30;;;3.10;99.90;;;;;;4949575;29;20275;-63
2022/12/10 09:41:01;;;;;;;6.17;5.77;;;3.20;99.90;;;;;;4935087;29;20238;-63
2022/12/10 09:43:42;;;;;;;5.87;5.47;;;3.20;99.90;;;;;;4922847;28;20228;-63
2022/12/10 09:46:19;;;;;;;6.50;6.10;;;3.20;99.90;;;;;;4931686;29;20238;-63
2022/12/10 09:48:56;;;;;;;6.60;6.20;;;3.30;99.90;;;;;;4931686;29;20204;-61
2022/12/10 09:51:26;;;;;;;6.43;6.03;;;3.20;99.90;;;;;;4927888;28;20208;-65
2022/12/10 09:53:58;;;;;;;6.60;6.20;;;3.20;99.90;;;;;;4926003;29;20291;-64
2022/12/10 09:56:29;;;;;;;6.50;6.10;;;3.20;99.90;;;;;;4931837;28;20232;-62
2022/12/10 09:58:57;;;;;;;6.70;6.30;;;3.10;99.90;;;;;;4926621;29;20208;-63
2022/12/10 10:01:29;;;;;;;6.73;6.33;;;3.20;99.90;;;;;;4931697;29;20234;-64
2022/12/10 10:03:56;;;;;;;7.07;6.67;;;3.20;99.90;;;;;;4926022;28;20613;-63
2022/12/10 10:06:27;;;;;;;6.13;5.73;;;3.20;99.90;;;;;;4926190;29;20236;-63
2022/12/10 10:08:56;;;;;;;6.50;6.10;;;3.20;99.90;;;;;;4931733;29;20208;-65
2022/12/10 10:11:25;;;;;;;6.40;6.00;;;3.30;99.90;;;;;;4928336;29;20243;-62
2022/12/10 10:13:56;;;;;;;6.90;6.50;;;3.10;99.90;;;;;;4930524;28;20192;-62
2022/12/10 10:16:33;;;;;;;6.40;6.00;;;3.10;99.90;;;;;;4929520;28;20297;-62
2022/12/10 10:19:01;;;;;;;6.27;5.87;;;3.10;99.90;;;;;;4932294;28;20204;-64
2022/12/10 10:21:33;;;;;;;6.63;6.23;;;3.10;99.90;;;;;;4926946;29;20205;-62
2022/12/10 10:24:00;;;;;;;6.40;6.00;;;3.10;99.90;;;;;;4930607;28;20224;-63
2022/12/10 10:26:28;;;;;;;6.47;6.07;;;3.00;99.90;;;;;;4931180;28;20227;-62
2022/12/10 10:29:00;;;;;;;6.50;6.10;;;3.10;99.90;;;;;;4927269;28;20236;-63
2022/12/10 10:31:30;;;;;;;6.67;6.27;;;2.90;99.90;;;;;;4932819;28;20204;-63
2022/12/10 10:33:59;;;;;;;6.83;6.43;;;2.90;99.90;;;;;;4932367;28;20208;-62
2022/12/10 10:36:29;;;;;;;6.63;6.13;;;3.00;99.90;;;;;;4931512;29;20231;-64
2022/12/10 10:38:56;;;;;;;6.97;6.50;;;3.10;99.90;;;;;;4928011;29;20691;-62
2022/12/10 10:41:26;;;;;;;6.22;5.82;;;3.20;99.90;;;;;;4932533;28;20256;-62
2022/12/10 10:44:01;;;;;;;6.17;5.77;;;3.30;99.90;;;;;;4935120;28;20231;-63
2022/12/10 10:46:30;;;;;;;6.67;6.20;;;3.30;99.90;;;;;;4934660;28;20239;-61
2022/12/10 10:49:19;;;;;;;6.00;5.60;;;3.40;99.90;;;;;;4932719;28;20215;-62
2022/12/10 10:51:46;;;;;;;6.07;5.67;;;3.50;99.90;;;;;;4930970;29;20211;-62
2022/12/10 10:54:30;;;;;;;5.70;5.30;;;3.50;99.90;;;;;;4933399;29;20204;-63
2022/12/10 10:56:57;;;;;;;6.50;6.10;;;3.60;99.90;;;;;;4932400;28;20605;-63
2022/12/10 10:59:31;;;;;;;6.73;6.33;;;3.60;99.90;;;;;;4936378;28;20218;-63
2022/12/10 11:02:05;;;;;;;5.82;5.47;;;3.60;99.90;;;;;;4930085;28;20212;-62
2022/12/10 11:04:37;;;;;;;5.87;5.53;;;3.60;99.90;;;;;;4928501;29;20266;-63
2022/12/10 11:07:12;;;;;;;6.37;5.97;;;3.60;99.90;;;;;;4942601;28;20297;-62
2022/12/10 11:09:38;;;;;;;5.90;5.50;;;3.50;99.90;;;;;;4931465;28;20218;-62
2022/12/10 11:12:08;;;;;;;6.60;6.10;;;3.50;99.90;;;;;;4940275;28;20212;-61
2022/12/10 11:14:41;;;;;;;6.23;5.83;;;3.40;99.90;;;;;;4949685;28;20211;-62
2022/12/10 11:17:20;;;;;;;6.20;5.70;;;3.40;99.90;;;;;;4947320;28;20259;-62
2022/12/10 11:19:57;;;;;;;6.13;5.72;;;3.30;99.90;;;;;;4930247;29;20211;-63
2022/12/10 11:22:25;;;;;;;6.00;5.60;;;3.20;99.90;;;;;;4928091;29;20246;-63
2022/12/10 11:24:52;;;;;;;6.20;5.80;;;3.20;99.90;;;;;;4928066;29;20772;-62
2022/12/10 11:27:32;;;;;;;5.77;5.47;;;3.20;99.90;;;;;;4931807;28;20238;-61
2022/12/10 11:30:04;;;;;;;6.30;5.90;;;3.20;99.90;;;;;;4931310;29;20580;-63
2022/12/10 11:32:46;;;;;;;6.00;5.60;;;3.20;99.90;;;;;;4926993;29;20201;-62
2022/12/10 11:35:18;;;;;;;5.90;5.50;;;3.20;99.90;;;;;;4925293;29;20212;-62
2022/12/10 11:37:56;;;;;;;6.03;5.63;;;3.20;99.90;;;;;;4929849;28;20313;-61
2022/12/10 11:40:38;;;;;;;6.40;6.00;;;3.20;99.90;;;;;;4928569;28;20327;-63
2022/12/10 11:43:26;;;;;;;5.23;4.93;;;3.20;99.90;;;;;;4946793;28;20215;-63
2022/12/10 11:46:00;;;;;;;5.60;5.30;;;3.20;99.90;;;;;;4941541;28;20684;-63
2022/12/10 11:48:47;;;;;;;5.80;5.50;;;3.20;99.90;;;;;;4932381;28;20223;-63
2022/12/10 11:51:21;;;;;;;5.53;5.23;;;3.10;99.90;;;;;;4933164;28;20222;-63
2022/12/10 11:54:11;;;;;;;5.30;5.00;;;3.10;99.90;;;;;;4929299;28;20699;-62
2022/12/10 11:56:41;;;;;;;5.27;4.97;;;3.10;99.90;;;;;;4930059;28;20223;-63
2022/12/10 11:59:17;;;;;;;5.77;5.47;;;3.20;99.90;;;;;;4932203;29;20242;-63
2022/12/10 12:01:59;;;;;;;5.23;4.93;;;3.20;99.90;;;;;;4927060;28;20204;-63
2022/12/10 12:04:42;;;;;;;5.70;5.40;;;3.20;99.90;;;;;;4934996;29;20226;-62
2022/12/10 12:07:34;;;;;;;5.73;5.33;;;3.20;99.90;;;;;;4932232;28;20252;-62
2022/12/10 12:10:46;;;;;;;5.70;5.40;;;3.10;99.90;;;;;;4931867;29;20212;-62
2022/12/10 12:13:17;;;;;;;5.25;4.95;;;3.20;99.90;;;;;;4938880;29;20216;-61
2022/12/10 12:15:49;;;;;;;6.20;5.80;;;3.20;99.90;;;;;;4931739;28;20212;-64
2022/12/10 12:18:21;;;;;;;5.70;5.40;;;3.10;99.90;;;;;;4932000;28;20212;-62
2022/12/10 12:20:54;;;;;;;5.90;5.50;;;3.20;99.90;;;;;;4931555;29;20668;-62
2022/12/10 12:23:27;;;;;;;5.63;5.23;;;3.10;99.90;;;;;;4931318;29;20685;-62
2022/12/10 12:26:00;;;;;;;6.07;5.67;;;3.00;99.90;;;;;;4931866;29;20593;-63
2022/12/10 12:28:32;;;;;;;5.30;4.90;;;3.10;99.90;;;;;;4931669;29;20211;-63
2022/12/10 12:31:03;;;;;;;5.80;5.50;;;3.10;99.90;;;;;;4931622;29;20279;-64
2022/12/10 12:33:39;;;;;;;5.40;5.10;;;3.20;99.90;;;;;;4926666;28;20208;-63
2022/12/10 12:36:10;;;;;;;5.20;4.90;;;3.10;99.90;;;;;;4932526;28;20208;-61
2022/12/10 12:38:46;;;;;;;5.43;5.13;;;3.30;99.90;;;;;;4934302;28;20216;-62
2022/12/10 12:41:17;;;;;;;5.20;4.90;;;3.10;99.90;;;;;;4933873;28;20221;-61
2022/12/10 12:43:52;;;;;;;5.10;4.80;;;3.10;99.90;;;;;;4923241;29;20227;-63
2022/12/10 12:46:26;;;;;;;5.30;5.00;;;3.10;99.90;;;;;;4927451;29;20232;-62
2022/12/10 12:48:59;;;;;;;5.90;5.50;;;3.10;99.90;;;;;;4917515;29;20307;-62
2022/12/10 12:51:33;;;;;;;5.07;4.77;;;3.20;99.90;;;;;;4926092;29;20692;-62
2022/12/10 12:54:00;;;;;;;4.90;4.60;;;3.20;99.90;;;;;;4916365;29;20299;-63
2022/12/10 12:56:42;;;;;;;5.20;4.90;;;3.20;99.90;;;;;;4930929;29;20226;-61
2022/12/10 12:59:22;;;;;;;4.90;4.60;;;3.20;99.90;;;;;;4924743;29;20215;-62
2022/12/10 13:01:54;;;;;;;4.63;4.33;;;3.20;99.90;;;;;;4920426;29;20215;-63
2022/12/10 13:04:21;;;;;;;4.93;4.63;;;3.10;99.90;;;;;;4929288;29;20234;-62
2022/12/10 13:07:18;;;;;;;4.83;4.53;;;3.00;99.90;;;;;;4929500;28;20228;-62
2022/12/10 13:09:48;;;;;;;5.07;4.77;;;3.00;99.90;;;;;;4934283;28;20220;-62
2022/12/10 13:12:29;;;;;;;5.03;4.40;;;3.00;99.90;;;;;;4928742;28;20204;-62
2022/12/10 13:15:04;;;;;;;4.57;4.37;;;3.00;99.90;;;;;;4923162;29;20209;-63
2022/12/10 13:17:34;;;;;;;5.15;4.85;;;3.00;99.90;;;;;;4925292;29;20762;-63
2022/12/10 13:20:30;;;;;;;5.40;5.00;;;2.90;99.90;;;;;;4923032;28;20262;-61
2022/12/10 13:22:59;;;;;;;4.33;4.10;;;2.80;99.90;;;;;;4932381;29;20199;-63
2022/12/10 13:25:55;;;;;;;5.10;4.80;;;2.70;99.90;;;;;;4929179;28;20313;-64